Castle Combe 10 Mile TT, April 2014
Skip Navigation Links
Results
Race Series
Event Stats
06 April 2014
HyperLink
Page 1 of 2 (51 items)
[1]2
Pos
Bib No
Fav
Share
Name
Time
Category
Cat Pos
Gender
Gen Pos
Club
Pace
Split 1
Lap 1
Lap 2
Lap 3
Lap 4
Lap 5
175Bryce Dyer22:52.0Sen1Male1VC St Raphael26.2 m/hr2:03.04:11.84:11.44:11.34:10.14:05.0
272Michael Davis23:02.0Sen2Male2DURSLEY RC26.0 m/hr1:57.74:09.84:12.64:13.84:14.34:14.1
367Matt Fisher23:56.0Vet1Male3 25.1 m/hr1:56.14:20.84:31.84:23.94:24.84:19.0
462Jason Streather24:02.0Vet2Male4VC St Raphael25.0 m/hr2:02.14:23.04:24.14:32.14:26.14:14.7
510Andy Morgan24:51.0Vet3Male5www.kinetic-one.co.uk24.1 m/hr2:09.64:29.94:31.54:32.74:33.44:34.0
666Paul Ransome24:59.0Sen3Male6Vibe Fitness Bath24.0 m/hr2:12.44:37.74:37.74:29.14:32.44:29.5
761Ben Skinner25:04.0Sen4Male7Vibe Fitness Bath23.9 m/hr2:05.04:37.14:36.84:40.74:36.74:27.7
864Russ Thompson Chris Beardshaw25:23.0Vet4Male8PERFORMANCE CYCLES23.6 m/hr2:04.54:34.24:43.84:44.74:43.24:33.1
946Barnaby Speller25:37.0Sen5Male9Velo Club Walcot23.4 m/hr2:06.04:35.54:42.94:48.94:44.54:39.1
1049Jamie Streather25:37.0Sen6Male10VC St Raphael23.4 m/hr2:07.64:36.94:48.64:39.84:41.84:42.1
1153 25:40.0Sen7Male11 23.4 m/hr2:07.64:35.64:42.84:46.04:50.54:38.0
1263Peter Tantrum25:42.0Vet5Male12DIDCOT PHOENIX CC23.3 m/hr2:14.04:36.24:40.44:41.14:46.94:43.8
1347Kev Tonner26:21.0Sen8Male13PERFORMANCE CYCLES22.8 m/hr2:13.74:55.14:54.24:50.84:48.94:38.2
1457Ross Bury26:25.0Vet6Male14Twenty3c22.7 m/hr2:50.44:42.14:45.64:46.54:41.14:39.7
1560Jon Gentle26:36.0Sen9Male15The Triathlon Shop22.6 m/hr2:11.74:45.64:53.34:57.84:53.84:53.8
1639Ian Barrett26:40.0Vet7Male16Hi-Elbow22.5 m/hr2:23.24:48.44:57.14:49.84:54.74:47.2
1750Chris Balodis26:45.0Vet8Male17TRI TEAM GLOS22.4 m/hr2:13.14:56.34:55.04:54.34:52.34:54.1
1823Ricky Henstock27:01.0Sen10Male18North Dorset Tri Club22.2 m/hr2:18.34:52.35:07.44:59.14:54.24:50.1
1929Sian Cahill27:11.0Sen1Female1Zappi's Racing Team22.1 m/hr2:22.44:56.75:00.95:02.55:01.64:47.3
2054Jon Burrage27:27.0Sen11Male19The Triathlon Shop21.9 m/hr2:11.35:00.85:06.25:03.25:11.94:54.1
2125Chrissie Waple27:28.0Sen2Female2 21.8 m/hr2:26.94:56.34:56.55:03.15:05.54:59.8
2219Paul Hardiman27:58.0Vet9Male20 21.5 m/hr2:27.75:08.95:07.05:06.35:10.74:57.2
2337Joshua Stewart28:05.0Sen12Male21Simonstrong Campaigners21.4 m/hr2:15.25:05.15:13.25:11.75:19.65:00.9
2432David Smith28:10.0Vet10Male22B2P21.3 m/hr2:36.45:12.05:09.05:07.15:03.05:03.0
2536Paul Stewart28:18.0SupVet1Male23Simonstrong Campaigners21.2 m/hr2:22.85:12.25:09.95:13.35:16.15:03.6
269Jonny Sinclair28:28.0SupVet2Male24 21.1 m/hr2:33.85:10.45:15.05:21.45:04.75:02.8
278Dan Wood28:39.0Sen13Male25Flying Monk Triathlon20.9 m/hr2:23.65:17.65:24.15:16.25:09.55:07.9
2814Martin Ringrose28:44.0Vet11Male26 20.9 m/hr2:36.85:12.15:18.35:17.75:11.85:07.7
2942Stephen Chapman29:05.0SupVet3Male27Corinium CC20.6 m/hr2:31.55:12.15:12.35:20.75:24.75:23.9
3017Simon Thomspon29:16.0Vet12Male28Swindon Striders20.5 m/hr2:35.65:13.85:27.15:30.15:18.45:11.6
3141Karen Spiteri29:41.02Up1Female3PERFORMANCE CYCLES20.2 m/hr2:28.05:22.15:29.45:31.95:28.65:21.3
3224Sue Hollin30:04.0Vet1Female4 20.0 m/hr2:38.95:24.15:22.25:33.95:34.55:31.1
3334Wesley Reuben30:17.0Sen14Male29 19.8 m/hr2:39.85:32.75:32.25:40.85:34.25:17.4
3428Chris Jowitt30:45.0Sen15Male30Monmouthshire Wheelers19.5 m/hr2:41.95:36.75:32.75:42.55:40.55:31.1
3559Richard Allen31:20.0Sen16Male31 19.1 m/hr2:36.25:52.25:41.55:37.45:50.25:43.0
3616Nigel Shires31:21.0SupVet4Male32 19.1 m/hr2:49.45:54.95:45.15:45.15:33.15:33.1
3731Martin Matthews31:22.0SupVet601Male33CYCOLOGY BIKES19.1 m/hr2:55.55:29.45:36.95:45.45:41.45:53.4
3811Emma Seddon31:23.0Sen3Female5BAD TRI19.1 m/hr2:39.35:35.35:45.65:42.25:53.25:47.7
3913Michele Olla31:30.0Sen17Male34 19.0 m/hr2:39.45:49.85:49.15:41.05:53.45:37.6
4043David Newton32:06.0Sen18Male35Andover Wheelers18.7 m/hr2:52.95:50.25:51.05:56.15:51.05:45.6
4122Stephen Avery32:37.0Vet13Male36Zappi's Racing Team18.4 m/hr2:50.15:56.66:05.35:58.56:00.85:45.6
4227Zoe Ludwig-Tantrum32:54.0Vet2Female6DIDCOT PHOENIX CC18.2 m/hr2:59.76:04.65:52.45:53.56:04.45:59.2
4315Graham Hewson33:25.0SupVet602Male37Simonstrong Campaigners18.0 m/hr2:54.96:02.36:04.56:18.56:09.55:55.4
4433Amanda Hunt33:36.0Sen4Female7 17.9 m/hr3:15.36:04.06:03.86:03.36:13.25:56.8
4518Simon Richardson Mbe35:13.0Vet14Male38Simonstrong Campaigners17.0 m/hr2:52.36:35.26:32.96:21.66:23.76:27.2
464Iain Ogilvie35:52.0Sen19Male39 16.7 m/hr2:58.16:26.36:38.36:48.86:40.36:20.5
472Francesca Fulgoni36:49.0Sen5Female8Monmouthshire Wheelers16.3 m/hr3:18.16:28.06:44.87:00.76:41.66:36.2
485Faye Gaskell38:49.0Sen6Female9 15.5 m/hr3:16.67:19.07:11.37:13.17:07.46:41.3
1Kelly WilliamsDNFSenFemale  5:40.811:40.712:24.412:41.9
48Gabriel ChinnDNFJunMaleVelo Club Montpellier 2:30.44:54.7
Page 1 of 2 (51 items)
[1]2
fb